createdAt,value
2019-01-17T00:01:43.517Z,5.70
2019-01-17T00:04:37.085Z,5.70
2019-01-17T00:07:29.087Z,5.70
2019-01-17T00:10:25.963Z,5.80
2019-01-17T00:13:13.755Z,5.80
2019-01-17T00:15:54.279Z,5.80
2019-01-17T00:18:45.197Z,5.80
2019-01-17T00:21:28.391Z,5.70
2019-01-17T00:24:14.669Z,5.70
2019-01-17T00:26:55.884Z,5.70
2019-01-17T00:29:33.780Z,5.70
2019-01-17T00:32:13.979Z,5.70
2019-01-17T00:35:01.739Z,5.70
2019-01-17T00:37:38.906Z,5.70
2019-01-17T00:40:43.915Z,5.70
2019-01-17T00:43:30.367Z,5.70
2019-01-17T00:46:36.503Z,5.70
2019-01-17T00:49:24.324Z,5.70
2019-01-17T00:52:19.855Z,5.70
2019-01-17T00:55:10.747Z,5.70
2019-01-17T00:58:04.431Z,5.60
2019-01-17T01:00:46.960Z,5.60
2019-01-17T01:03:40.579Z,5.60
2019-01-17T01:06:28.363Z,5.50
2019-01-17T01:09:31.425Z,5.50
2019-01-17T01:12:34.026Z,5.50
2019-01-17T01:15:21.012Z,5.50
2019-01-17T01:18:02.971Z,5.60
2019-01-17T01:20:41.247Z,5.50
2019-01-17T01:23:47.170Z,5.50
2019-01-17T01:26:41.954Z,5.60
2019-01-17T01:29:32.776Z,5.60
2019-01-17T01:32:19.031Z,5.60
2019-01-17T01:35:06.893Z,5.60
2019-01-17T01:38:00.832Z,5.60
2019-01-17T01:40:43.018Z,5.60
2019-01-17T01:43:19.922Z,5.50
2019-01-17T01:46:10.695Z,5.50
2019-01-17T01:49:01.588Z,5.50
2019-01-17T01:51:49.347Z,5.50
2019-01-17T01:54:22.007Z,5.60
2019-01-17T01:56:48.443Z,5.50
2019-01-17T01:59:17.231Z,5.50
2019-01-17T02:01:45.896Z,5.60
2019-01-17T02:04:14.588Z,5.60
2019-01-17T02:06:43.309Z,5.60
2019-01-17T02:09:11.989Z,5.50
2019-01-17T02:11:40.694Z,5.50
2019-01-17T02:14:09.466Z,5.50
2019-01-17T02:16:38.273Z,5.50
2019-01-17T02:19:07.062Z,5.60
2019-01-17T02:21:35.839Z,5.50
2019-01-17T02:24:04.772Z,5.50
2019-01-17T02:26:33.489Z,5.40
2019-01-17T02:29:02.206Z,5.40
2019-01-17T02:31:30.974Z,5.30
2019-01-17T02:33:59.758Z,5.20
2019-01-17T02:36:28.579Z,5.20
2019-01-17T02:38:57.443Z,5.20
2019-01-17T02:41:26.237Z,5.20
2019-01-17T02:43:54.972Z,5.20
2019-01-17T02:46:23.682Z,5.20
2019-01-17T02:48:52.481Z,5.20
2019-01-17T02:51:21.499Z,5.30
2019-01-17T02:53:50.309Z,5.20
2019-01-17T02:56:19.182Z,5.20
2019-01-17T02:58:47.981Z,5.20
2019-01-17T03:01:16.863Z,5.20
2019-01-17T03:03:45.617Z,5.20
2019-01-17T03:06:14.319Z,5.20
2019-01-17T03:08:43.069Z,5.20
2019-01-17T03:11:11.868Z,5.20
2019-01-17T03:13:40.667Z,5.20
2019-01-17T03:16:09.447Z,5.20
2019-01-17T03:18:38.355Z,5.20
2019-01-17T03:21:07.164Z,5.20
2019-01-17T03:23:35.874Z,5.20
2019-01-17T03:26:04.634Z,5.20
2019-01-17T03:28:33.443Z,5.20
2019-01-17T03:31:02.122Z,5.20
2019-01-17T03:36:18.765Z,5.10
2019-01-17T03:38:47.665Z,5.10
2019-01-17T03:41:16.510Z,5.10
2019-01-17T03:43:45.407Z,5.10
2019-01-17T03:46:14.240Z,5.10
2019-01-17T03:48:43.040Z,5.10
2019-01-17T03:51:11.832Z,5.10
2019-01-17T03:53:40.506Z,5.10
2019-01-17T03:56:09.653Z,5.10
2019-01-17T03:58:38.555Z,5.10
2019-01-17T04:01:07.405Z,5.10
2019-01-17T04:03:36.399Z,5.10
2019-01-17T04:06:05.132Z,5.10
2019-01-17T04:08:33.853Z,5.10
2019-01-17T04:11:02.635Z,5.00
2019-01-17T04:13:31.430Z,5.10
2019-01-17T04:16:00.390Z,5.10
2019-01-17T04:18:29.185Z,5.10
2019-01-17T04:20:58.043Z,5.10
2019-01-17T04:23:26.747Z,5.10
2019-01-17T04:25:55.502Z,5.10
2019-01-17T04:28:24.255Z,5.20
2019-01-17T04:30:53.108Z,5.20
2019-01-17T04:33:21.889Z,5.10
2019-01-17T04:35:51.136Z,5.20
2019-01-17T04:38:19.808Z,5.20
2019-01-17T04:40:48.549Z,5.10
2019-01-17T04:43:17.260Z,5.20
2019-01-17T04:45:46.187Z,5.10
2019-01-17T04:48:15.030Z,5.10
2019-01-17T04:50:43.827Z,5.10
2019-01-17T04:53:12.702Z,5.20
2019-01-17T04:55:41.427Z,5.10
2019-01-17T04:58:10.353Z,5.10
2019-01-17T05:00:39.098Z,5.20
2019-01-17T05:03:07.766Z,5.20
2019-01-17T05:05:36.573Z,5.20
2019-01-17T05:08:05.242Z,5.20
2019-01-17T05:10:34.078Z,5.20
2019-01-17T05:13:02.899Z,5.30
2019-01-17T05:15:31.615Z,5.30
2019-01-17T05:18:00.319Z,5.40
2019-01-17T05:20:29.029Z,5.30
2019-01-17T05:22:57.754Z,5.30
2019-01-17T05:25:26.521Z,5.40
2019-01-17T05:27:55.181Z,5.40
2019-01-17T05:30:23.921Z,5.40
2019-01-17T05:32:52.700Z,5.50
2019-01-17T05:35:21.458Z,5.40
2019-01-17T05:37:50.386Z,5.50
2019-01-17T05:40:19.996Z,5.50
2019-01-17T05:42:48.936Z,5.50
2019-01-17T05:45:17.811Z,5.50
2019-01-17T05:47:46.607Z,5.50
2019-01-17T05:50:16.479Z,5.50
2019-01-17T05:52:45.233Z,5.50
2019-01-17T05:55:19.793Z,5.60
2019-01-17T05:57:44.734Z,5.50
2019-01-17T06:00:15.776Z,5.60
2019-01-17T06:02:44.523Z,5.60
2019-01-17T06:05:14.651Z,5.50
2019-01-17T06:07:47.946Z,5.60
2019-01-17T06:10:16.680Z,5.50
2019-01-17T06:12:45.411Z,5.50
2019-01-17T06:15:16.108Z,5.50
2019-01-17T06:17:44.936Z,5.50
2019-01-17T06:20:14.377Z,5.50
2019-01-17T06:22:43.087Z,5.50
2019-01-17T06:25:11.874Z,5.50
2019-01-17T06:27:40.663Z,5.50
2019-01-17T06:30:10.910Z,5.50
2019-01-17T06:32:39.701Z,5.50
2019-01-17T06:35:09.053Z,5.60
2019-01-17T06:37:37.877Z,5.60
2019-01-17T06:40:13.538Z,5.60
2019-01-17T06:42:42.285Z,5.60
2019-01-17T06:45:11.098Z,5.60
2019-01-17T06:47:39.952Z,5.60
2019-01-17T06:50:08.698Z,5.50
2019-01-17T06:52:37.414Z,5.60
2019-01-17T06:55:06.395Z,5.50
2019-01-17T06:57:35.113Z,5.40
2019-01-17T07:00:05.454Z,5.40
2019-01-17T07:02:37.548Z,5.40
2019-01-17T07:05:07.065Z,5.40
2019-01-17T07:07:35.810Z,5.40
2019-01-17T07:10:05.858Z,5.40
2019-01-17T07:12:34.591Z,5.40
2019-01-17T07:15:03.379Z,5.40
2019-01-17T07:17:32.166Z,5.40
2019-01-17T07:20:00.923Z,5.40
2019-01-17T07:22:29.855Z,5.40
2019-01-17T07:24:58.869Z,5.40
2019-01-17T07:27:27.571Z,5.40
2019-01-17T07:29:56.280Z,5.40
2019-01-17T07:32:25.038Z,5.40
2019-01-17T07:34:53.762Z,5.40
2019-01-17T07:37:22.503Z,5.40
2019-01-17T07:39:51.207Z,5.40
2019-01-17T07:42:19.964Z,5.40
2019-01-17T07:44:48.798Z,5.40
2019-01-17T07:47:17.720Z,5.30
2019-01-17T07:49:46.489Z,5.40
2019-01-17T07:52:15.441Z,5.40
2019-01-17T07:54:44.169Z,5.40
2019-01-17T07:57:13.184Z,5.30
2019-01-17T07:59:41.995Z,5.30
2019-01-17T08:02:10.757Z,5.30
2019-01-17T08:04:39.529Z,5.30
2019-01-17T08:07:08.214Z,5.40
2019-01-17T08:09:36.961Z,5.40
2019-01-17T08:12:05.754Z,5.50
2019-01-17T08:14:34.538Z,5.60
2019-01-17T08:17:03.217Z,5.60
2019-01-17T08:19:31.967Z,5.60
2019-01-17T08:22:00.711Z,5.70
2019-01-17T08:24:29.491Z,5.60
2019-01-17T08:26:58.291Z,5.60
2019-01-17T08:29:27.101Z,5.70
2019-01-17T08:31:56.071Z,5.70
2019-01-17T08:34:28.227Z,5.70
2019-01-17T08:36:55.223Z,5.70
2019-01-17T08:39:23.994Z,5.80
2019-01-17T08:41:52.741Z,5.80
2019-01-17T08:44:21.571Z,5.70
2019-01-17T08:46:50.335Z,5.70
2019-01-17T08:49:19.131Z,5.80
2019-01-17T08:51:47.843Z,5.70
2019-01-17T08:54:16.659Z,5.70
2019-01-17T08:56:45.363Z,5.70
2019-01-17T08:59:14.085Z,5.70
2019-01-17T09:01:42.749Z,5.60
2019-01-17T09:04:11.499Z,5.60
2019-01-17T09:06:40.198Z,5.70
2019-01-17T09:09:09.677Z,5.70
2019-01-17T09:11:38.426Z,5.70
2019-01-17T09:14:07.247Z,5.80
2019-01-17T09:16:36.036Z,5.80
2019-01-17T09:19:04.884Z,5.80
2019-01-17T09:21:33.639Z,5.90
2019-01-17T09:24:02.361Z,5.90
2019-01-17T09:26:31.065Z,5.90
2019-01-17T09:28:59.849Z,5.90
2019-01-17T09:31:28.554Z,6.00
2019-01-17T09:33:57.334Z,6.10
2019-01-17T09:36:26.078Z,6.20
2019-01-17T09:38:54.787Z,6.30
2019-01-17T09:41:23.498Z,6.40
2019-01-17T09:43:52.374Z,6.30
2019-01-17T09:46:21.098Z,6.20
2019-01-17T09:48:49.838Z,6.20
2019-01-17T09:51:18.563Z,6.20
2019-01-17T09:53:47.323Z,6.30
2019-01-17T09:56:16.049Z,6.30
2019-01-17T09:58:44.772Z,6.30
2019-01-17T10:01:13.578Z,6.30
2019-01-17T10:03:42.297Z,6.20
2019-01-17T10:06:11.044Z,6.30
2019-01-17T10:08:39.852Z,6.30
2019-01-17T10:11:08.781Z,6.30
2019-01-17T10:13:37.616Z,6.40
2019-01-17T10:16:26.432Z,6.50
2019-01-17T10:19:39.944Z,6.50
2019-01-17T10:22:55.506Z,6.50
2019-01-17T10:25:46.897Z,6.50
2019-01-17T10:29:09.316Z,6.50
2019-01-17T10:32:14.914Z,6.50
2019-01-17T10:35:30.961Z,6.40
2019-01-17T10:38:21.193Z,6.50
2019-01-17T10:41:43.265Z,6.50
2019-01-17T10:44:42.266Z,6.40
2019-01-17T10:47:40.228Z,6.40
2019-01-17T10:51:11.531Z,6.40
2019-01-17T10:54:03.201Z,6.30
2019-01-17T10:57:06.774Z,6.30
2019-01-17T10:59:49.531Z,6.10
2019-01-17T11:02:41.015Z,6.00
2019-01-17T11:05:43.912Z,5.80
2019-01-17T11:08:22.100Z,5.50
2019-01-17T11:11:24.966Z,5.50
2019-01-17T11:14:26.880Z,5.30
2019-01-17T11:17:10.824Z,5.20
2019-01-17T11:20:03.010Z,5.10
2019-01-17T11:23:12.909Z,5.00
2019-01-17T11:26:34.454Z,5.00
2019-01-17T11:29:30.561Z,5.00
2019-01-17T11:32:22.362Z,5.00
2019-01-17T11:35:11.414Z,4.80
2019-01-17T11:38:21.084Z,4.80
2019-01-17T11:41:25.005Z,4.80
2019-01-17T11:44:22.593Z,4.60
2019-01-17T11:47:28.575Z,4.60
2019-01-17T11:50:26.301Z,4.40
2019-01-17T11:53:32.458Z,4.40
2019-01-17T11:56:40.942Z,4.40
2019-01-17T11:59:39.832Z,4.10
2019-01-17T12:02:44.832Z,3.90
2019-01-17T12:05:13.583Z,3.70
2019-01-17T12:07:42.594Z,3.60
2019-01-17T12:10:11.515Z,3.60
2019-01-17T12:12:40.838Z,3.50
2019-01-17T12:15:10.100Z,3.50
2019-01-17T12:17:38.943Z,3.40
2019-01-17T12:20:08.831Z,3.50
2019-01-17T12:22:38.589Z,3.70
2019-01-17T12:25:07.583Z,3.70
2019-01-17T12:27:42.494Z,3.70
2019-01-17T12:30:13.734Z,3.70
2019-01-17T12:32:42.903Z,3.60
2019-01-17T12:35:15.699Z,3.70
2019-01-17T12:37:44.955Z,3.60
2019-01-17T12:40:14.706Z,3.60
2019-01-17T12:42:43.575Z,3.70
2019-01-17T12:45:13.145Z,3.70
2019-01-17T12:47:42.145Z,3.70
2019-01-17T12:50:14.404Z,3.60
2019-01-17T12:52:43.146Z,3.70
2019-01-17T12:55:11.922Z,3.70
2019-01-17T12:57:40.690Z,3.60
2019-01-17T13:00:18.053Z,3.60
2019-01-17T13:02:46.739Z,3.70
2019-01-17T13:05:15.515Z,3.90
2019-01-17T13:07:46.061Z,4.00
2019-01-17T13:10:14.734Z,3.90
2019-01-17T13:12:43.486Z,4.10
2019-01-17T13:15:13.019Z,4.00
2019-01-17T13:17:41.981Z,4.00
2019-01-17T13:20:13.160Z,4.00
2019-01-17T13:22:41.873Z,3.90
2019-01-17T13:25:12.887Z,3.90
2019-01-17T13:27:41.575Z,3.90
2019-01-17T13:30:19.730Z,3.90
2019-01-17T13:32:48.381Z,3.70
2019-01-17T13:35:17.278Z,3.70
2019-01-17T13:37:46.000Z,3.70
2019-01-17T13:40:21.756Z,3.70
2019-01-17T13:42:50.494Z,3.70
2019-01-17T13:45:20.319Z,3.70
2019-01-17T13:47:49.518Z,3.70
2019-01-17T13:50:18.551Z,3.60
2019-01-17T13:52:47.320Z,3.70
2019-01-17T13:55:16.229Z,3.80
2019-01-17T13:57:44.943Z,3.60
2019-01-17T14:00:16.596Z,3.60
2019-01-17T14:02:45.488Z,3.60
2019-01-17T14:05:14.531Z,3.60
2019-01-17T14:07:43.362Z,3.70
2019-01-17T14:10:12.226Z,3.70
2019-01-17T14:12:41.210Z,3.70
2019-01-17T14:15:13.382Z,3.70
2019-01-17T14:17:42.182Z,3.80
2019-01-17T14:20:11.079Z,3.70
2019-01-17T14:22:39.896Z,3.80
2019-01-17T14:25:08.780Z,3.80
2019-01-17T14:27:39.580Z,3.80
2019-01-17T14:30:13.029Z,3.90
2019-01-17T14:32:41.716Z,3.90
2019-01-17T14:35:10.476Z,3.90
2019-01-17T14:37:39.218Z,4.00
2019-01-17T14:40:08.202Z,4.00
2019-01-17T14:42:36.929Z,4.00
2019-01-17T14:45:06.687Z,4.00
2019-01-17T14:47:35.425Z,4.00
2019-01-17T14:50:05.256Z,4.00
2019-01-17T14:52:36.738Z,4.00
2019-01-17T14:55:06.079Z,4.00
2019-01-17T14:57:34.895Z,4.00
2019-01-17T15:00:03.660Z,4.00
2019-01-17T15:02:32.402Z,4.00
2019-01-17T15:05:01.203Z,3.90
2019-01-17T15:07:30.086Z,4.00
2019-01-17T15:09:58.791Z,4.00
2019-01-17T15:12:27.581Z,3.90
2019-01-17T15:14:56.387Z,3.90
2019-01-17T15:17:25.215Z,3.70
2019-01-17T15:19:53.938Z,3.50
2019-01-17T15:22:22.654Z,3.50
2019-01-17T15:24:51.401Z,3.40
2019-01-17T15:27:20.084Z,3.30
2019-01-17T15:29:48.792Z,3.20
2019-01-17T15:32:18.371Z,3.10
2019-01-17T15:34:47.130Z,3.00
2019-01-17T15:37:15.949Z,2.90
2019-01-17T15:39:44.714Z,2.90
2019-01-17T15:42:13.443Z,2.90
2019-01-17T15:44:42.383Z,2.90
2019-01-17T15:47:13.199Z,2.90
2019-01-17T15:49:41.709Z,2.90
2019-01-17T15:52:10.419Z,2.80
2019-01-17T15:54:39.114Z,2.80
2019-01-17T15:57:07.803Z,2.80
2019-01-17T15:59:36.612Z,2.80
2019-01-17T16:02:05.374Z,2.80
2019-01-17T16:04:34.176Z,2.80
2019-01-17T16:07:03.127Z,2.70
2019-01-17T16:09:31.873Z,2.60
2019-01-17T16:12:00.728Z,2.60
2019-01-17T16:14:29.626Z,2.70
2019-01-17T16:16:58.469Z,2.70
2019-01-17T16:19:27.242Z,2.70
2019-01-17T16:21:56.068Z,2.80
2019-01-17T16:24:24.789Z,2.80
2019-01-17T16:26:53.506Z,2.80
2019-01-17T16:29:22.250Z,2.80
2019-01-17T16:31:51.071Z,2.90
2019-01-17T16:34:19.940Z,2.80
2019-01-17T16:36:49.006Z,2.70
2019-01-17T16:39:17.812Z,2.70
2019-01-17T16:41:46.714Z,2.70
2019-01-17T16:44:15.471Z,2.70
2019-01-17T16:46:44.259Z,2.80
2019-01-17T16:49:13.187Z,2.70
2019-01-17T16:51:41.951Z,2.80
2019-01-17T16:54:10.705Z,2.80
2019-01-17T16:56:39.503Z,2.90
2019-01-17T16:59:08.341Z,2.90
2019-01-17T17:01:37.134Z,2.90
2019-01-17T17:04:05.825Z,2.90
2019-01-17T17:06:34.535Z,3.00
2019-01-17T17:09:04.281Z,3.00
2019-01-17T17:11:33.014Z,3.00
2019-01-17T17:14:01.762Z,3.00
2019-01-17T17:16:30.574Z,3.10
2019-01-17T17:18:59.339Z,3.20
2019-01-17T17:21:28.150Z,3.20
2019-01-17T17:23:57.045Z,3.30
2019-01-17T17:26:25.830Z,3.30
2019-01-17T17:28:54.781Z,3.30
2019-01-17T17:31:23.485Z,3.40
2019-01-17T17:33:52.191Z,3.40
2019-01-17T17:36:21.115Z,3.40
2019-01-17T17:38:49.898Z,3.40
2019-01-17T17:41:18.645Z,3.40
2019-01-17T17:43:47.621Z,3.30
2019-01-17T17:46:16.439Z,3.30
2019-01-17T17:48:45.113Z,3.30
2019-01-17T17:51:14.198Z,3.30
2019-01-17T17:53:42.902Z,3.30
2019-01-17T17:56:13.455Z,3.30
2019-01-17T17:58:42.327Z,3.20
2019-01-17T18:01:30.223Z,3.10
2019-01-17T18:03:59.032Z,3.20
2019-01-17T18:06:27.720Z,3.20
2019-01-17T18:08:56.572Z,3.10
2019-01-17T18:11:25.247Z,3.20
2019-01-17T18:13:54.082Z,3.10
2019-01-17T18:16:24.343Z,3.10
2019-01-17T18:18:53.285Z,3.10
2019-01-17T18:21:22.015Z,3.10
2019-01-17T18:23:50.788Z,3.10
2019-01-17T18:26:19.922Z,3.00
2019-01-17T18:28:48.649Z,2.90
2019-01-17T18:31:17.544Z,2.90
2019-01-17T18:33:46.308Z,2.80
2019-01-17T18:36:15.177Z,2.80
2019-01-17T18:38:44.206Z,2.80
2019-01-17T18:41:12.973Z,2.80
2019-01-17T18:43:41.722Z,2.80
2019-01-17T18:46:10.584Z,2.70
2019-01-17T18:48:39.590Z,2.70
2019-01-17T18:51:08.398Z,2.70
2019-01-17T18:53:38.210Z,2.70
2019-01-17T18:56:07.073Z,2.60
2019-01-17T18:58:35.941Z,2.70
2019-01-17T19:01:04.878Z,2.60
2019-01-17T19:03:33.850Z,2.60
2019-01-17T19:06:02.782Z,2.70
2019-01-17T19:08:31.504Z,2.60
2019-01-17T19:11:00.418Z,2.60
2019-01-17T19:13:29.467Z,2.50
2019-01-17T19:15:58.398Z,2.50
2019-01-17T19:18:27.490Z,2.50
2019-01-17T19:20:56.953Z,2.50
2019-01-17T19:23:25.956Z,2.50
2019-01-17T19:25:54.819Z,2.40
2019-01-17T19:28:23.827Z,2.40
2019-01-17T19:30:52.634Z,2.30
2019-01-17T19:33:21.678Z,2.30
2019-01-17T19:35:51.172Z,2.40
2019-01-17T19:38:20.036Z,2.30
2019-01-17T19:40:48.980Z,2.40
2019-01-17T19:43:17.951Z,2.30
2019-01-17T19:45:47.611Z,2.30
2019-01-17T19:48:16.419Z,2.30
2019-01-17T19:50:45.416Z,2.40
2019-01-17T19:53:14.507Z,2.30
2019-01-17T19:55:43.558Z,2.40
2019-01-17T19:58:12.404Z,2.30
2019-01-17T20:00:41.256Z,2.30
2019-01-17T20:03:09.956Z,2.30
2019-01-17T20:05:39.057Z,2.30
2019-01-17T20:08:08.011Z,2.30
2019-01-17T20:10:37.500Z,2.20
2019-01-17T20:13:05.601Z,2.20
2019-01-17T20:15:34.503Z,2.10
2019-01-17T20:18:03.324Z,2.10
2019-01-17T20:20:33.760Z,2.10
2019-01-17T20:23:02.631Z,2.10
2019-01-17T20:25:31.718Z,2.10
2019-01-17T20:28:00.405Z,2.10
2019-01-17T20:30:32.310Z,2.20
2019-01-17T20:33:06.056Z,2.20
2019-01-17T20:35:34.772Z,2.30
2019-01-17T20:38:03.839Z,2.30
2019-01-17T20:40:34.528Z,2.30
2019-01-17T20:43:03.469Z,2.30
2019-01-17T20:45:32.262Z,2.40
2019-01-17T20:48:01.109Z,2.30
2019-01-17T20:50:31.659Z,2.40
2019-01-17T20:53:00.485Z,2.40
2019-01-17T20:55:29.213Z,2.40
2019-01-17T20:57:58.034Z,2.40
2019-01-17T21:00:33.069Z,2.40
2019-01-17T21:03:01.920Z,2.40
2019-01-17T21:05:30.643Z,2.40
2019-01-17T21:07:59.917Z,2.30
2019-01-17T21:10:28.749Z,2.30
2019-01-17T21:12:57.736Z,2.20
2019-01-17T21:15:26.452Z,2.20
2019-01-17T21:17:55.185Z,2.00
2019-01-17T21:20:23.991Z,1.90
2019-01-17T21:22:52.741Z,1.90
2019-01-17T21:25:21.598Z,1.80
2019-01-17T21:27:50.291Z,1.80
2019-01-17T21:30:21.027Z,1.80
2019-01-17T21:32:49.819Z,1.80
2019-01-17T21:35:20.278Z,1.80
2019-01-17T21:37:49.047Z,1.80
2019-01-17T21:40:18.698Z,1.80
2019-01-17T21:42:47.521Z,1.80
2019-01-17T21:45:17.225Z,1.80
2019-01-17T21:47:45.981Z,1.80
2019-01-17T21:50:17.240Z,1.70
2019-01-17T21:52:45.950Z,1.80
2019-01-17T21:55:14.690Z,1.80
2019-01-17T21:57:43.383Z,1.80
2019-01-17T22:00:18.503Z,1.80
2019-01-17T22:02:47.186Z,1.80
2019-01-17T22:05:15.944Z,1.70
2019-01-17T22:07:44.710Z,1.70
2019-01-17T22:10:13.604Z,1.70
2019-01-17T22:12:42.809Z,1.80
2019-01-17T22:15:17.257Z,1.80
2019-01-17T22:17:46.038Z,1.80
2019-01-17T22:20:14.782Z,1.80
2019-01-17T22:22:43.609Z,1.80
2019-01-17T22:25:13.167Z,1.90
2019-01-17T22:27:41.877Z,1.90
2019-01-17T22:30:16.845Z,1.80
2019-01-17T22:32:45.665Z,1.70
2019-01-17T22:35:14.401Z,1.70
2019-01-17T22:37:43.277Z,1.70
2019-01-17T22:40:13.071Z,1.60
2019-01-17T22:42:41.853Z,1.70
2019-01-17T22:45:13.198Z,1.70
2019-01-17T22:47:44.030Z,1.70
2019-01-17T22:50:14.288Z,1.70
2019-01-17T22:52:43.137Z,1.70
2019-01-17T22:55:11.835Z,1.60
2019-01-17T22:57:40.600Z,1.60
2019-01-17T23:00:15.798Z,1.60
2019-01-17T23:02:44.568Z,1.60
2019-01-17T23:05:13.370Z,1.60
2019-01-17T23:07:42.161Z,1.60
2019-01-17T23:10:11.022Z,1.60
2019-01-17T23:12:39.911Z,1.60
2019-01-17T23:15:08.680Z,1.60
2019-01-17T23:17:37.419Z,1.60
2019-01-17T23:20:06.421Z,1.60
2019-01-17T23:22:35.131Z,1.60
2019-01-17T23:25:04.490Z,1.60
2019-01-17T23:27:33.215Z,1.50
2019-01-17T23:30:01.999Z,1.50
2019-01-17T23:32:30.751Z,1.50
2019-01-17T23:34:59.514Z,1.50
2019-01-17T23:37:28.258Z,1.50
2019-01-17T23:39:56.990Z,1.50
2019-01-17T23:42:25.708Z,1.50
2019-01-17T23:44:54.466Z,1.50
2019-01-17T23:47:23.246Z,1.50
2019-01-17T23:49:52.099Z,1.50
2019-01-17T23:52:20.926Z,1.50
2019-01-17T23:54:49.676Z,1.50
2019-01-17T23:57:18.376Z,1.50
2019-01-17T23:59:47.069Z,1.50
